메인 페이지
METAR-TAF:

METAR-TAF

공항 :

Mount Washington Regional Airport

Whitefield, 뉴햄프셔, 미국

위도: 44-21-58N, 경도: 071-33-09W, 고도: 327m

현재 날씨관측

예보는 25분 전, 01:52시(UTC)에 발표되었습니다.
여러 방향의 바람 3kt
온도 7°C
습도 53%
기압 1007 hPa
시정: 16.1km
고도 6000ft 상공 흐림

METAR: KHIE 160152Z AUTO VRB03KT 10SM OVC060 07/M02 A2974 RMK AO2 SLP074 T00721017

시각: 22:17 (02:17 UTC)

예보

예보는 2 시간 44분 전, 23:33시(UTC)에 발표되었습니다.
예보 대상 시간: 16일 00시부터 16일 24시까지 (UTC)
8kt
시정: 10km
고도 5000ft 상공 흐림
약한비
16일 0300시부터 (UTC)
10kt
시정: 3.2km
고도 1500ft 상공 구름 보통
고도 3500ft 상공 흐림
약한눈, 박무
16일 1200시부터 (UTC)
12kt
시정: 3.2km
고도 800ft 상공 흐림
약한눈, 박무
16일 1800시부터 (UTC)
14kt, 순간 최대 풍속 23kt
시정: 3.2km
고도 800ft 상공 흐림
약한눈, 박무

TAF: KHIE 152333Z 1600/1624 19008KT P6SM -RA OVC050 FM160300 17010KT 2SM -SN BR SCT015 OVC035 FM161200 09012KT 2SM -SN BR OVC008 FM161800 09014G23KT 2SM -SN BR OVC008

4,000개 이상의 공항 관측 자료 및 예보 (METAR 및 TAF 보고).

지도상에서 검색 가능한 기상관측소가 노란 점과 빨간 점으로 표시되어 있습니다.

기상관측소 명을 보려면 표시 위로 마우스를 이동하세요.

날씨 관측과 예보를 보려면 클릭하세요.

지도 변경 : 확대하려면 엑스 표시가 있는 녹색 버튼, 축소하려면 빼기 표시가 있는 녹색 버튼, 다음 페이지의 지도를 보려면 녹색 화살표를 클릭하세요.


METAR-TAF: